createdAt,value
2017-05-26T00:01:04.232Z,9.64
2017-05-26T00:03:33.297Z,8.36
2017-05-26T00:06:02.358Z,8.42
2017-05-26T00:08:31.566Z,7.78
2017-05-26T00:11:00.639Z,8.16
2017-05-26T00:13:30.340Z,7.92
2017-05-26T00:15:59.410Z,9.40
2017-05-26T00:18:28.476Z,8.54
2017-05-26T00:20:57.570Z,9.60
2017-05-26T00:23:26.655Z,9.82
2017-05-26T00:25:55.895Z,10.08
2017-05-26T00:28:24.967Z,9.40
2017-05-26T00:30:54.031Z,9.30
2017-05-26T00:33:23.134Z,8.42
2017-05-26T00:35:52.198Z,10.46
2017-05-26T00:38:21.483Z,11.44
2017-05-26T00:40:50.559Z,10.78
2017-05-26T00:43:19.629Z,10.00
2017-05-26T00:45:49.062Z,10.34
2017-05-26T00:48:18.128Z,11.32
2017-05-26T00:50:47.207Z,11.08
2017-05-26T00:53:16.440Z,10.24
2017-05-26T00:55:45.503Z,11.90
2017-05-26T00:58:15.135Z,12.00
2017-05-26T01:00:44.232Z,12.86
2017-05-26T01:03:13.299Z,12.78
2017-05-26T01:05:42.515Z,12.38
2017-05-26T01:08:11.591Z,13.60
2017-05-26T01:10:40.662Z,13.24
2017-05-26T01:13:09.783Z,14.86
2017-05-26T01:15:38.858Z,12.20
2017-05-26T01:18:08.319Z,14.76
2017-05-26T01:20:37.427Z,15.28
2017-05-26T01:23:06.542Z,15.04
2017-05-26T01:25:35.642Z,13.96
2017-05-26T01:28:04.720Z,15.04
2017-05-26T01:30:34.207Z,13.02
2017-05-26T01:33:03.569Z,13.38
2017-05-26T01:35:32.639Z,15.60
2017-05-26T01:38:01.854Z,14.12
2017-05-26T01:40:30.943Z,15.34
2017-05-26T01:43:00.020Z,14.76
2017-05-26T01:45:29.274Z,15.54
2017-05-26T01:47:58.358Z,15.42
2017-05-26T01:50:27.487Z,15.46
2017-05-26T01:52:56.980Z,15.78
2017-05-26T01:55:26.063Z,17.10
2017-05-26T01:57:55.118Z,16.20
2017-05-26T02:00:24.331Z,15.44
2017-05-26T02:02:53.403Z,15.70
2017-05-26T02:05:22.487Z,16.74
2017-05-26T02:07:51.951Z,14.70
2017-05-26T02:10:21.021Z,15.94
2017-05-26T02:12:50.092Z,16.24
2017-05-26T02:15:19.191Z,17.30
2017-05-26T02:17:48.284Z,15.38
2017-05-26T02:20:17.740Z,16.48
2017-05-26T02:22:46.818Z,16.90
2017-05-26T02:25:15.886Z,17.68
2017-05-26T02:27:46.379Z,15.70
2017-05-26T02:30:15.444Z,16.90
2017-05-26T02:32:44.657Z,17.88
2017-05-26T02:35:13.738Z,15.26
2017-05-26T02:37:42.814Z,18.22
2017-05-26T02:40:11.910Z,16.94
2017-05-26T02:42:40.985Z,16.72
2017-05-26T02:45:10.480Z,18.78
2017-05-26T02:47:39.503Z,18.52
2017-05-26T02:50:08.571Z,18.18
2017-05-26T02:52:38.015Z,16.64
2017-05-26T02:55:07.091Z,17.50
2017-05-26T02:57:36.151Z,18.90
2017-05-26T03:00:05.264Z,16.16
2017-05-26T03:02:35.116Z,17.28
2017-05-26T03:05:04.215Z,17.50
2017-05-26T03:07:33.295Z,17.44
2017-05-26T03:10:02.503Z,16.60
2017-05-26T03:12:31.598Z,16.88
2017-05-26T03:15:00.703Z,18.42
2017-05-26T03:17:29.787Z,20.22
2017-05-26T03:19:58.872Z,18.68
2017-05-26T03:22:28.489Z,17.68
2017-05-26T03:24:57.592Z,16.84
2017-05-26T03:27:26.670Z,19.72
2017-05-26T03:29:55.882Z,17.90
2017-05-26T03:32:24.947Z,19.04
2017-05-26T03:34:54.019Z,19.14
2017-05-26T03:37:23.230Z,19.54
2017-05-26T03:39:52.308Z,17.36
2017-05-26T03:42:21.386Z,18.70
2017-05-26T03:44:50.643Z,17.76
2017-05-26T03:47:19.720Z,16.02
2017-05-26T03:49:48.796Z,16.08
2017-05-26T03:52:18.013Z,16.82
2017-05-26T03:54:47.091Z,15.38
2017-05-26T03:57:15.388Z,17.56
2017-05-26T03:59:44.474Z,16.00
2017-05-26T04:02:13.544Z,16.24
2017-05-26T04:04:42.736Z,17.28
2017-05-26T04:07:11.817Z,17.08
2017-05-26T04:09:40.890Z,15.64
2017-05-26T04:12:10.334Z,18.00
2017-05-26T04:14:39.412Z,16.10
2017-05-26T04:17:08.506Z,16.62
2017-05-26T04:19:37.612Z,14.94
2017-05-26T04:22:06.694Z,15.42
2017-05-26T04:24:35.875Z,17.24
2017-05-26T04:27:04.941Z,16.74
2017-05-26T04:29:34.022Z,16.86
2017-05-26T04:32:03.257Z,15.44
2017-05-26T04:34:32.340Z,15.06
2017-05-26T04:37:01.439Z,16.40
2017-05-26T04:39:30.646Z,16.00
2017-05-26T04:41:59.729Z,15.52
2017-05-26T04:44:28.827Z,15.46
2017-05-26T04:46:58.090Z,14.72
2017-05-26T04:49:27.151Z,16.56
2017-05-26T04:51:56.237Z,15.32
2017-05-26T04:54:25.343Z,16.20
2017-05-26T04:56:54.414Z,14.92
2017-05-26T04:59:23.622Z,15.38
2017-05-26T05:01:52.763Z,15.58
2017-05-26T05:04:21.856Z,17.28
2017-05-26T05:06:51.135Z,15.02
2017-05-26T05:09:20.215Z,17.80
2017-05-26T05:11:49.315Z,14.92
2017-05-26T05:14:18.519Z,14.42
2017-05-26T05:16:47.582Z,16.08
2017-05-26T05:19:17.168Z,14.98
2017-05-26T05:21:46.230Z,14.62
2017-05-26T05:24:15.287Z,15.54
2017-05-26T05:26:44.374Z,17.60
2017-05-26T05:29:13.455Z,17.04
2017-05-26T05:31:42.960Z,18.52
2017-05-26T05:34:12.023Z,16.52
2017-05-26T05:36:41.120Z,14.80
2017-05-26T05:39:10.223Z,16.14
2017-05-26T05:41:39.300Z,15.46
2017-05-26T05:44:08.456Z,15.60
2017-05-26T05:46:37.518Z,16.24
2017-05-26T05:49:06.763Z,17.50
2017-05-26T05:51:35.845Z,17.28
2017-05-26T05:54:04.907Z,21.78
2017-05-26T05:56:33.996Z,16.90
2017-05-26T05:59:03.074Z,17.48
2017-05-26T06:01:32.547Z,18.56
2017-05-26T06:04:01.638Z,18.26
2017-05-26T06:06:30.718Z,19.50
2017-05-26T06:08:59.823Z,17.60
2017-05-26T06:11:29.101Z,17.66
2017-05-26T06:13:58.199Z,17.82
2017-05-26T06:16:27.287Z,18.96
2017-05-26T06:18:56.671Z,17.34
2017-05-26T06:21:25.750Z,17.54
2017-05-26T06:23:54.823Z,16.18
2017-05-26T06:26:24.029Z,19.36
2017-05-26T06:28:53.099Z,17.30
2017-05-26T06:31:22.179Z,18.42
2017-05-26T06:33:51.394Z,17.66
2017-05-26T06:36:20.461Z,18.60
2017-05-26T06:38:49.539Z,19.22
2017-05-26T06:41:18.743Z,18.08
2017-05-26T06:43:47.830Z,19.14
2017-05-26T06:46:16.918Z,17.30
2017-05-26T06:48:46.220Z,18.52
2017-05-26T06:51:15.295Z,17.54
2017-05-26T06:53:44.363Z,17.20
2017-05-26T06:56:13.588Z,18.18
2017-05-26T06:58:42.659Z,17.78
2017-05-26T07:01:11.764Z,20.04
2017-05-26T07:03:40.966Z,19.78
2017-05-26T07:06:10.039Z,17.46
2017-05-26T07:08:39.130Z,19.12
2017-05-26T07:11:08.963Z,19.88
2017-05-26T07:13:38.079Z,18.50
2017-05-26T07:16:07.182Z,20.42
2017-05-26T07:18:36.395Z,20.44
2017-05-26T07:21:05.468Z,21.20
2017-05-26T07:23:34.565Z,21.32
2017-05-26T07:26:03.871Z,20.98
2017-05-26T07:28:32.955Z,20.22
2017-05-26T07:31:02.063Z,20.80
2017-05-26T07:33:31.159Z,21.54
2017-05-26T07:36:00.309Z,21.46
2017-05-26T07:38:29.466Z,18.28
2017-05-26T07:40:58.543Z,18.96
2017-05-26T07:43:27.639Z,19.96
2017-05-26T07:45:56.864Z,20.72
2017-05-26T07:48:25.955Z,24.38
2017-05-26T07:50:55.025Z,21.08
2017-05-26T07:53:24.120Z,22.30
2017-05-26T07:55:53.203Z,21.80
2017-05-26T07:58:22.471Z,20.70
2017-05-26T08:00:51.555Z,21.08
2017-05-26T08:03:20.655Z,22.96
2017-05-26T08:05:49.881Z,18.46
2017-05-26T08:08:18.980Z,21.14
2017-05-26T08:10:49.068Z,20.12
2017-05-26T08:13:18.173Z,19.66
2017-05-26T08:15:47.262Z,21.74
2017-05-26T08:18:16.407Z,20.44
2017-05-26T08:20:45.503Z,19.02
2017-05-26T08:23:14.594Z,20.68
2017-05-26T08:25:43.687Z,21.24
2017-05-26T08:28:13.470Z,19.96
2017-05-26T08:30:42.576Z,20.54
2017-05-26T08:33:11.670Z,20.02
2017-05-26T08:35:40.839Z,20.72
2017-05-26T08:38:09.931Z,20.90
2017-05-26T08:40:39.176Z,21.58
2017-05-26T08:43:08.613Z,18.48
2017-05-26T08:45:37.717Z,22.42
2017-05-26T08:48:06.829Z,20.80
2017-05-26T08:50:35.920Z,21.62
2017-05-26T08:53:04.527Z,19.86
2017-05-26T08:55:33.649Z,23.68
2017-05-26T08:58:02.745Z,23.56
2017-05-26T09:00:31.967Z,22.96
2017-05-26T09:03:01.168Z,27.46
2017-05-26T09:05:30.305Z,23.64
2017-05-26T09:07:59.423Z,24.34
2017-05-26T09:10:28.501Z,29.36
2017-05-26T09:12:57.749Z,27.64
2017-05-26T09:15:26.835Z,29.38
2017-05-26T09:17:56.023Z,29.76
2017-05-26T09:20:25.249Z,31.12
2017-05-26T09:22:54.356Z,31.32
2017-05-26T09:25:23.456Z,33.26
2017-05-26T09:27:52.576Z,34.34
2017-05-26T09:30:21.677Z,32.40
2017-05-26T09:32:50.839Z,35.00
2017-05-26T09:35:19.921Z,34.38
2017-05-26T09:37:49.140Z,31.72
2017-05-26T09:40:18.236Z,34.02
2017-05-26T09:42:47.327Z,31.00
2017-05-26T09:45:16.880Z,34.90
2017-05-26T09:47:45.992Z,32.16
2017-05-26T09:50:15.087Z,33.12
2017-05-26T09:52:44.295Z,33.48
2017-05-26T09:55:13.387Z,33.52
2017-05-26T09:57:42.459Z,32.52
2017-05-26T10:00:11.764Z,33.66
2017-05-26T10:02:40.860Z,32.30
2017-05-26T10:05:09.934Z,30.58
2017-05-26T10:07:39.465Z,32.88
2017-05-26T10:10:08.632Z,34.60
2017-05-26T10:12:37.716Z,31.34
2017-05-26T10:15:06.830Z,32.96
2017-05-26T10:17:35.980Z,30.78
2017-05-26T10:20:05.212Z,35.54
2017-05-26T10:22:34.279Z,37.32
2017-05-26T10:25:03.373Z,36.86
2017-05-26T10:27:32.596Z,32.60
2017-05-26T10:30:01.691Z,34.44
2017-05-26T10:32:30.871Z,33.80
2017-05-26T10:35:00.132Z,34.06
2017-05-26T10:37:29.245Z,25.36
2017-05-26T10:39:58.340Z,25.30
2017-05-26T10:42:27.467Z,26.96
2017-05-26T10:44:56.602Z,24.40
2017-05-26T10:47:25.917Z,26.06
2017-05-26T10:49:54.998Z,24.70
2017-05-26T10:52:24.078Z,26.20
2017-05-26T10:54:53.335Z,26.62
2017-05-26T10:57:22.555Z,30.42
2017-05-26T10:59:52.350Z,26.34
2017-05-26T11:02:21.533Z,26.92
2017-05-26T11:04:50.817Z,27.38
2017-05-26T11:07:20.116Z,27.36
2017-05-26T11:09:49.341Z,26.82
2017-05-26T11:12:18.735Z,26.94
2017-05-26T11:14:47.932Z,24.98
2017-05-26T11:17:17.066Z,26.06
2017-05-26T11:19:46.707Z,26.94
2017-05-26T11:22:15.783Z,25.90
2017-05-26T11:24:44.924Z,23.42
2017-05-26T11:27:13.991Z,23.10
2017-05-26T11:29:43.244Z,22.58
2017-05-26T11:32:12.362Z,20.30
2017-05-26T11:34:43.006Z,19.86
2017-05-26T11:37:12.435Z,17.66
2017-05-26T11:39:41.604Z,15.92
2017-05-26T11:42:10.856Z,14.16
2017-05-26T11:44:40.045Z,16.62
2017-05-26T11:47:09.243Z,17.04
2017-05-26T11:49:39.111Z,16.24
2017-05-26T11:52:10.062Z,16.02
2017-05-26T11:54:41.337Z,15.56
2017-05-26T11:57:10.849Z,15.56
2017-05-26T11:59:40.191Z,11.04
2017-05-26T12:02:09.367Z,10.04
2017-05-26T12:04:38.495Z,10.80
2017-05-26T12:07:07.763Z,10.76
2017-05-26T12:09:36.886Z,11.38
2017-05-26T12:12:06.399Z,11.90
2017-05-26T12:14:35.575Z,13.34
2017-05-26T12:17:04.802Z,14.36
2017-05-26T12:19:33.942Z,10.82
2017-05-26T12:22:03.151Z,11.46
2017-05-26T12:24:32.285Z,12.26
2017-05-26T12:27:01.570Z,13.86
2017-05-26T12:29:30.734Z,11.18
2017-05-26T12:31:59.918Z,12.22
2017-05-26T12:34:29.371Z,11.66
2017-05-26T12:36:58.723Z,12.36
2017-05-26T12:39:27.831Z,10.10
2017-05-26T12:41:56.972Z,9.80
2017-05-26T12:44:26.314Z,10.54
2017-05-26T12:46:55.482Z,9.10
2017-05-26T12:49:24.555Z,10.12
2017-05-26T12:51:53.682Z,9.50
2017-05-26T12:54:22.777Z,9.78
2017-05-26T12:56:51.930Z,10.30
2017-05-26T12:59:21.039Z,11.06
2017-05-26T13:01:50.174Z,11.18
2017-05-26T13:04:19.296Z,11.40
2017-05-26T13:06:47.622Z,14.40
2017-05-26T13:09:16.718Z,13.40
2017-05-26T13:11:45.874Z,10.14
2017-05-26T13:14:14.976Z,10.86
2017-05-26T13:16:44.267Z,12.22
2017-05-26T13:19:13.456Z,12.00
2017-05-26T13:21:42.619Z,9.36
2017-05-26T13:24:11.688Z,8.86
2017-05-26T13:26:40.794Z,11.38
2017-05-26T13:29:09.950Z,10.92
2017-05-26T13:31:39.096Z,9.84
2017-05-26T13:34:08.163Z,10.78
2017-05-26T13:36:37.277Z,10.38
2017-05-26T13:39:06.403Z,9.94
2017-05-26T13:41:35.519Z,11.00
2017-05-26T13:44:04.646Z,10.34
2017-05-26T13:46:34.371Z,10.68
2017-05-26T13:49:03.487Z,9.24
2017-05-26T13:51:32.583Z,11.30
2017-05-26T13:54:01.769Z,12.54
2017-05-26T13:56:30.819Z,12.12
2017-05-26T13:59:00.022Z,10.76
2017-05-26T14:01:29.161Z,11.22
2017-05-26T14:03:58.303Z,9.98
2017-05-26T14:06:27.442Z,9.62
2017-05-26T14:08:56.513Z,11.42
2017-05-26T14:11:25.635Z,9.98
2017-05-26T14:13:54.796Z,10.32
2017-05-26T14:16:23.919Z,10.68
2017-05-26T14:18:53.088Z,9.58
2017-05-26T14:21:22.192Z,11.02
2017-05-26T14:23:51.351Z,12.32
2017-05-26T14:26:20.477Z,9.66
2017-05-26T14:28:49.683Z,9.02
2017-05-26T14:31:18.841Z,9.60
2017-05-26T14:33:47.963Z,10.10
2017-05-26T14:36:17.100Z,9.30
2017-05-26T14:38:46.229Z,11.14
2017-05-26T14:41:15.400Z,7.66
2017-05-26T14:43:44.547Z,8.78
2017-05-26T14:46:13.712Z,9.10
2017-05-26T14:48:42.818Z,10.04
2017-05-26T14:51:11.996Z,9.40
2017-05-26T14:53:41.106Z,10.64
2017-05-26T14:56:10.230Z,13.40
2017-05-26T14:58:39.344Z,10.78
2017-05-26T15:01:09.268Z,10.60
2017-05-26T15:03:38.387Z,8.14
2017-05-26T15:06:07.540Z,10.36
2017-05-26T15:08:36.696Z,11.28
2017-05-26T15:11:05.867Z,10.94
2017-05-26T15:13:35.003Z,12.08
2017-05-26T15:16:04.363Z,8.42
2017-05-26T15:18:33.486Z,10.20
2017-05-26T15:21:02.628Z,9.42
2017-05-26T15:23:31.802Z,13.60
2017-05-26T15:26:00.947Z,13.50
2017-05-26T15:28:30.071Z,14.06
2017-05-26T15:30:59.223Z,12.26
2017-05-26T15:33:28.408Z,14.72
2017-05-26T15:35:57.588Z,16.10
2017-05-26T15:38:26.770Z,15.52
2017-05-26T15:40:55.892Z,13.88
2017-05-26T15:43:25.070Z,15.04
2017-05-26T15:45:54.215Z,11.28
2017-05-26T15:48:23.443Z,14.28
2017-05-26T15:50:52.906Z,13.88
2017-05-26T15:53:22.457Z,14.32
2017-05-26T15:55:51.635Z,14.06
2017-05-26T15:58:21.105Z,12.20
2017-05-26T16:00:51.256Z,12.06
2017-05-26T16:03:20.463Z,13.84
2017-05-26T16:05:49.716Z,13.80
2017-05-26T16:08:18.950Z,14.14
2017-05-26T16:10:48.908Z,17.54
2017-05-26T16:13:18.131Z,16.00
2017-05-26T16:15:47.357Z,16.96
2017-05-26T16:18:16.580Z,14.10
2017-05-26T16:20:45.766Z,16.78
2017-05-26T16:23:14.977Z,19.34
2017-05-26T16:25:44.160Z,14.82
2017-05-26T16:28:13.357Z,18.24
2017-05-26T16:30:42.563Z,16.98
2017-05-26T16:33:11.740Z,18.22
2017-05-26T16:35:40.969Z,16.42
2017-05-26T16:38:09.404Z,21.06
2017-05-26T16:40:38.743Z,21.84
2017-05-26T16:43:07.945Z,19.90
2017-05-26T16:45:37.153Z,20.66
2017-05-26T16:48:06.394Z,17.34
2017-05-26T16:50:35.555Z,16.40
2017-05-26T16:53:04.744Z,17.68
2017-05-26T16:55:33.868Z,21.54
2017-05-26T16:58:03.009Z,12.38
2017-05-26T17:00:33.168Z,15.32
2017-05-26T17:03:02.595Z,16.68
2017-05-26T17:05:31.717Z,14.16
2017-05-26T17:08:00.941Z,12.18
2017-05-26T17:10:30.690Z,12.98
2017-05-26T17:13:05.811Z,13.48
2017-05-26T17:15:35.073Z,13.66
2017-05-26T17:18:04.366Z,14.40
2017-05-26T17:20:33.622Z,13.58
2017-05-26T17:23:02.804Z,14.26
2017-05-26T17:25:31.980Z,22.24
2017-05-26T17:28:02.401Z,14.04
2017-05-26T17:30:31.591Z,17.04
2017-05-26T17:33:00.724Z,13.30
2017-05-26T17:35:30.196Z,11.48
2017-05-26T17:37:59.365Z,13.02
2017-05-26T17:40:28.471Z,11.02
2017-05-26T17:42:57.749Z,15.12
2017-05-26T17:45:26.874Z,15.58
2017-05-26T17:47:56.011Z,15.42
2017-05-26T17:50:25.247Z,10.54
2017-05-26T17:52:54.380Z,15.40
2017-05-26T17:55:23.544Z,12.08
2017-05-26T17:57:52.811Z,11.78
2017-05-26T18:00:22.414Z,11.58
2017-05-26T18:02:51.542Z,12.58
2017-05-26T18:05:20.863Z,11.06
2017-05-26T18:07:49.968Z,9.08
2017-05-26T18:10:19.053Z,8.54
2017-05-26T18:12:47.632Z,8.80
2017-05-26T18:15:16.706Z,10.20
2017-05-26T18:17:45.815Z,8.58
2017-05-26T18:20:15.062Z,7.66
2017-05-26T18:22:44.160Z,8.78
2017-05-26T18:25:13.569Z,7.30
2017-05-26T18:27:42.796Z,8.98
2017-05-26T18:30:11.906Z,8.34
2017-05-26T18:32:41.026Z,7.68
2017-05-26T18:35:10.159Z,8.26
2017-05-26T18:37:39.251Z,6.76
2017-05-26T18:40:09.756Z,8.80
2017-05-26T18:42:38.939Z,9.04
2017-05-26T18:45:08.060Z,9.28
2017-05-26T18:47:37.296Z,8.92
2017-05-26T18:50:06.398Z,11.12
2017-05-26T18:52:35.516Z,9.90
2017-05-26T18:55:04.732Z,10.06
2017-05-26T18:57:33.843Z,10.98
2017-05-26T19:00:02.944Z,10.88
2017-05-26T19:05:07.376Z,11.40
2017-05-26T19:07:36.849Z,10.20
2017-05-26T19:10:05.947Z,8.86
2017-05-26T19:12:35.066Z,9.28
2017-05-26T19:15:04.295Z,9.96
2017-05-26T19:17:33.394Z,8.92
2017-05-26T19:20:02.497Z,9.76
2017-05-26T19:22:31.622Z,9.42
2017-05-26T19:25:01.115Z,9.60
2017-05-26T19:27:30.405Z,10.80
2017-05-26T19:29:59.527Z,8.98
2017-05-26T19:32:28.596Z,9.50
2017-05-26T19:34:57.913Z,9.54
2017-05-26T19:37:26.946Z,10.28
2017-05-26T19:42:31.490Z,9.32
2017-05-26T19:45:00.567Z,10.00
2017-05-26T19:47:29.807Z,9.42
2017-05-26T19:49:58.961Z,9.80
2017-05-26T19:52:28.056Z,10.34
2017-05-26T19:54:57.160Z,8.82
2017-05-26T19:57:26.295Z,10.98
2017-05-26T19:59:55.540Z,11.38
2017-05-26T20:02:24.643Z,11.16
2017-05-26T20:04:53.792Z,9.08
2017-05-26T20:07:22.923Z,8.32
2017-05-26T20:09:51.996Z,8.62
2017-05-26T20:12:21.282Z,8.48
2017-05-26T20:14:52.831Z,8.68
2017-05-26T20:17:22.062Z,9.18
2017-05-26T20:19:51.171Z,9.12
2017-05-26T20:22:20.239Z,8.52
2017-05-26T20:24:49.351Z,8.90
2017-05-26T20:27:18.427Z,11.68
2017-05-26T20:29:47.644Z,11.00
2017-05-26T20:32:16.746Z,9.10
2017-05-26T20:34:45.818Z,9.34
2017-05-26T20:37:15.093Z,7.90
2017-05-26T20:39:44.188Z,8.98
2017-05-26T20:42:13.315Z,7.36
2017-05-26T20:44:42.556Z,9.00
2017-05-26T20:47:11.659Z,9.50
2017-05-26T20:49:40.773Z,10.22
2017-05-26T20:52:09.979Z,9.06
2017-05-26T20:54:39.052Z,7.94
2017-05-26T20:57:08.147Z,8.94
2017-05-26T20:59:37.277Z,9.56
2017-05-26T21:02:06.353Z,12.24
2017-05-26T21:04:35.592Z,10.28
2017-05-26T21:07:04.683Z,13.68
2017-05-26T21:09:33.791Z,9.32
2017-05-26T21:12:03.026Z,10.38
2017-05-26T21:14:32.132Z,11.58
2017-05-26T21:17:01.256Z,8.84
2017-05-26T21:19:30.383Z,11.36
2017-05-26T21:21:59.468Z,9.02
2017-05-26T21:24:28.690Z,24.94
2017-05-26T21:26:57.798Z,14.76
2017-05-26T21:29:26.903Z,11.98
2017-05-26T21:31:56.160Z,10.90
2017-05-26T21:34:25.238Z,9.20
2017-05-26T21:36:54.643Z,12.00
2017-05-26T21:39:23.739Z,16.98
2017-05-26T21:41:52.867Z,11.02
2017-05-26T21:44:21.967Z,9.26
2017-05-26T21:46:51.123Z,10.96
2017-05-26T21:49:20.429Z,9.80
2017-05-26T21:51:49.512Z,8.80
2017-05-26T21:54:18.869Z,8.88
2017-05-26T21:56:47.991Z,9.82
2017-05-26T21:59:17.063Z,9.84
2017-05-26T22:01:46.479Z,9.16
2017-05-26T22:04:15.591Z,8.84
2017-05-26T22:06:44.723Z,10.26
2017-05-26T22:09:13.037Z,8.88
2017-05-26T22:11:42.126Z,8.48
2017-05-26T22:14:11.392Z,9.66
2017-05-26T22:16:40.478Z,9.24
2017-05-26T22:19:09.554Z,9.12
2017-05-26T22:21:38.657Z,9.68
2017-05-26T22:24:07.770Z,11.20
2017-05-26T22:26:37.059Z,9.04
2017-05-26T22:29:06.147Z,9.54
2017-05-26T22:31:35.230Z,11.18
2017-05-26T22:34:04.350Z,9.68
2017-05-26T22:36:33.447Z,8.40
2017-05-26T22:39:02.567Z,9.70
2017-05-26T22:41:31.667Z,9.50
2017-05-26T22:44:00.891Z,9.46
2017-05-26T22:46:30.024Z,9.02
2017-05-26T22:48:59.116Z,11.58
2017-05-26T22:51:28.262Z,9.06
2017-05-26T22:53:57.358Z,10.32
2017-05-26T22:56:26.474Z,10.04
2017-05-26T22:58:55.580Z,8.90
2017-05-26T23:01:24.964Z,9.90
2017-05-26T23:03:54.075Z,8.86
2017-05-26T23:06:23.175Z,9.98
2017-05-26T23:08:52.411Z,8.52
2017-05-26T23:11:21.507Z,8.80
2017-05-26T23:13:50.599Z,9.06
2017-05-26T23:16:19.708Z,8.52
2017-05-26T23:18:48.791Z,10.82
2017-05-26T23:21:18.000Z,9.24
2017-05-26T23:23:47.071Z,8.36
2017-05-26T23:26:16.136Z,9.36
2017-05-26T23:28:45.240Z,8.82
2017-05-26T23:31:14.336Z,9.16
2017-05-26T23:33:43.506Z,9.42
2017-05-26T23:36:12.582Z,9.00
2017-05-26T23:38:41.648Z,8.86
2017-05-26T23:41:10.743Z,9.62
2017-05-26T23:43:39.847Z,8.40
2017-05-26T23:46:09.035Z,7.32
2017-05-26T23:48:38.130Z,7.94
2017-05-26T23:51:07.229Z,9.00
2017-05-26T23:53:36.328Z,9.80
2017-05-26T23:56:05.410Z,8.86
2017-05-26T23:58:34.731Z,8.34
